Hovedside
METAR-TAF:

METAR-TAF

Lufthavner :

Esbjerg lufthavn

Esbjerg, Danmark

breddegrad: 55-32N, lengdegrad: 008-34E, høyde over havet: 30 m

Gjeldene værobservasjon

Denne rapporten ble laget for 17 minutter siden, klokken 17:20 UTC
Vind 10 kt fra Sør, skiftende mellom Sørøst og Sør-sørvest
Temperatur 11°C
Luftfuktighet 94%
Trykk 998 hPa
Sikt 10 km eller mer
lette regnbyger

METAR: EKEB 181720Z AUTO 18010KT 140V210 9999 -SHRA FEW011/// BKN039/// BKN064/// 11/10 Q0998

Tid: 19:37 (17:37 UTC)

Varsel

Denne rapporten ble laget for 15 minutter siden, klokken 17:22 UTC
Varsel gyldig fra 18. klokken 18 UTC til 18. klokken 22 UTC
Vind 12 kt fra Sør-sørvest
Sikt: 9000 m
Brutte skyer i en høyde av 1500 ft
Midlertidig
fra 18. klokken 18 UTC til 18. klokken 22 UTC
Sikt: 4000 m
Brutte skyer i en høyde av 1000 ft
Spredte skyer i en høyde av 2000 ft, Bygeskyer.
regnbyger

TAF: EKEB 181722Z 1818/1822 21012KT 9000 BKN015 TEMPO 1818/1822 4000 SHRA BKN010 SCT020CB

Værobservasjoner og værvarsel for over 4000 flyplasser (METAR- og TAF-rapporter).

Tilgjengelige stasjoner er representert av de røde og gule prikkene på kartet.

Hold musepekeren over prikken for å se navnet på stasjonen.

Klikk så for å se værobservasjoner og -varsler.

For å forandre kartet kan du klikke på den grønne knappen med svart kryss for å zoome inn, på den grønne knappen med strek for å zoome ut, eller på de grønne pilene for å se tilstøtende kart.


METAR-TAF: